createdAt,value
2019-03-26T00:00:15.337Z,6.87
2019-03-26T00:02:52.037Z,6.87
2019-03-26T00:05:25.597Z,6.83
2019-03-26T00:08:07.678Z,6.37
2019-03-26T00:10:41.217Z,5.83
2019-03-26T00:13:22.080Z,6.60
2019-03-26T00:15:55.991Z,7.93
2019-03-26T00:18:31.664Z,6.90
2019-03-26T00:21:07.843Z,6.53
2019-03-26T00:23:45.773Z,6.90
2019-03-26T00:26:20.242Z,6.47
2019-03-26T00:28:58.090Z,6.17
2019-03-26T00:31:31.628Z,5.93
2019-03-26T00:34:18.290Z,6.27
2019-03-26T00:36:48.764Z,6.47
2019-03-26T00:39:29.554Z,6.53
2019-03-26T00:42:03.541Z,5.83
2019-03-26T00:44:43.816Z,7.03
2019-03-26T00:47:17.137Z,5.90
2019-03-26T00:49:54.281Z,6.33
2019-03-26T00:52:38.933Z,6.27
2019-03-26T00:55:25.206Z,5.83
2019-03-26T00:58:03.249Z,5.33
2019-03-26T01:00:48.082Z,5.80
2019-03-26T01:03:22.271Z,5.80
2019-03-26T01:06:12.567Z,5.80
2019-03-26T01:08:49.488Z,5.93
2019-03-26T01:11:25.932Z,5.30
2019-03-26T01:14:03.935Z,5.50
2019-03-26T01:16:46.947Z,5.97
2019-03-26T01:19:26.693Z,5.27
2019-03-26T01:22:05.038Z,6.03
2019-03-26T01:24:59.771Z,5.37
2019-03-26T01:27:34.711Z,5.47
2019-03-26T01:30:24.264Z,5.07
2019-03-26T01:33:06.155Z,6.60
2019-03-26T01:35:46.815Z,5.03
2019-03-26T01:38:27.205Z,5.10
2019-03-26T01:41:13.056Z,4.90
2019-03-26T01:43:55.268Z,4.77
2019-03-26T01:46:39.732Z,5.07
2019-03-26T01:49:24.940Z,5.40
2019-03-26T01:52:06.502Z,4.80
2019-03-26T01:54:45.870Z,5.43
2019-03-26T01:57:23.626Z,5.30
2019-03-26T02:00:01.084Z,4.67
2019-03-26T02:02:33.334Z,5.13
2019-03-26T02:05:07.013Z,5.00
2019-03-26T02:07:45.693Z,4.97
2019-03-26T02:10:16.112Z,4.50
2019-03-26T02:12:50.631Z,4.03
2019-03-26T02:15:31.309Z,4.40
2019-03-26T02:18:06.490Z,5.30
2019-03-26T02:20:49.652Z,3.80
2019-03-26T02:23:25.481Z,3.83
2019-03-26T02:26:01.101Z,4.47
2019-03-26T02:28:40.210Z,5.13
2019-03-26T02:31:21.479Z,4.27
2019-03-26T02:33:49.565Z,4.37
2019-03-26T02:36:27.818Z,4.10
2019-03-26T02:39:02.330Z,5.07
2019-03-26T02:41:39.636Z,5.17
2019-03-26T02:44:18.433Z,4.03
2019-03-26T02:46:53.087Z,4.10
2019-03-26T02:49:29.414Z,4.57
2019-03-26T02:52:09.811Z,4.43
2019-03-26T02:54:45.610Z,4.53
2019-03-26T02:57:27.116Z,3.90
2019-03-26T03:00:06.250Z,5.13
2019-03-26T03:02:56.114Z,3.87
2019-03-26T03:05:36.294Z,4.73
2019-03-26T03:08:11.423Z,4.10
2019-03-26T03:10:49.537Z,4.87
2019-03-26T03:13:25.622Z,4.17
2019-03-26T03:16:08.427Z,4.17
2019-03-26T03:18:46.334Z,4.23
2019-03-26T03:24:16.417Z,4.30
2019-03-26T03:29:41.012Z,3.43
2019-03-26T03:32:16.902Z,4.47
2019-03-26T03:34:49.489Z,4.50
2019-03-26T03:37:23.725Z,3.40
2019-03-26T03:39:57.239Z,4.37
2019-03-26T03:42:34.320Z,4.97
2019-03-26T03:45:18.723Z,4.17
2019-03-26T03:48:04.835Z,3.90
2019-03-26T03:50:46.352Z,3.83
2019-03-26T03:53:24.251Z,3.57
2019-03-26T03:55:57.488Z,4.10
2019-03-26T03:58:37.082Z,4.07
2019-03-26T04:01:16.266Z,3.83
2019-03-26T04:03:50.833Z,3.23
2019-03-26T04:06:29.207Z,3.60
2019-03-26T04:09:07.519Z,4.53
2019-03-26T04:11:42.303Z,3.90
2019-03-26T04:14:16.331Z,4.40
2019-03-26T04:16:57.547Z,3.60
2019-03-26T04:19:27.883Z,4.40
2019-03-26T04:22:05.224Z,4.20
2019-03-26T04:24:43.874Z,4.60
2019-03-26T04:27:32.077Z,3.87
2019-03-26T04:30:09.295Z,4.00
2019-03-26T04:32:42.475Z,4.20
2019-03-26T04:35:27.422Z,4.30
2019-03-26T04:38:01.022Z,4.37
2019-03-26T04:40:36.462Z,4.03
2019-03-26T04:43:14.360Z,4.20
2019-03-26T04:45:48.549Z,3.93
2019-03-26T04:48:26.788Z,4.67
2019-03-26T04:51:07.642Z,3.40
2019-03-26T04:53:52.008Z,3.70
2019-03-26T04:56:36.809Z,3.73
2019-03-26T04:59:25.824Z,3.33
2019-03-26T05:02:04.728Z,4.10
2019-03-26T05:04:43.782Z,4.80
2019-03-26T05:07:18.878Z,3.67
2019-03-26T05:09:59.353Z,3.33
2019-03-26T05:12:49.185Z,3.77
2019-03-26T05:15:35.619Z,3.97
2019-03-26T05:19:09.954Z,3.70
2019-03-26T05:21:03.068Z,3.73
2019-03-26T05:23:43.057Z,3.63
2019-03-26T05:26:25.487Z,4.20
2019-03-26T05:29:09.795Z,4.13
2019-03-26T05:31:50.161Z,4.57
2019-03-26T05:37:31.436Z,4.33
2019-03-26T05:40:15.093Z,3.37
2019-03-26T05:42:55.311Z,3.73
2019-03-26T05:45:36.619Z,4.00
2019-03-26T05:48:34.803Z,3.90
2019-03-26T05:51:20.487Z,4.57
2019-03-26T05:57:04.517Z,4.70
2019-03-26T06:03:09.572Z,4.20
2019-03-26T06:06:15.287Z,4.30
2019-03-26T06:12:40.613Z,4.60
2019-03-26T06:18:11.274Z,4.00
2019-03-26T06:22:02.680Z,3.73
2019-03-26T06:28:10.875Z,3.83
2019-03-26T06:43:53.677Z,4.00
2019-03-26T06:46:26.351Z,6.30
2019-03-26T06:55:10.826Z,3.67
2019-03-26T07:13:31.686Z,5.37
2019-03-26T07:16:20.514Z,3.10
2019-03-26T07:19:24.333Z,3.17
2019-03-26T07:25:15.688Z,3.40
2019-03-26T07:28:14.715Z,4.07
2019-03-26T07:30:58.161Z,4.37
2019-03-26T07:41:56.228Z,3.70
2019-03-26T08:21:45.116Z,3.53
2019-03-26T08:24:49.640Z,3.37
2019-03-26T08:27:50.465Z,2.33
2019-03-26T08:42:21.267Z,3.10
2019-03-26T08:55:22.033Z,2.90
2019-03-26T09:00:51.086Z,3.00
2019-03-26T09:03:52.238Z,3.10
2019-03-26T09:13:05.050Z,3.20
2019-03-26T09:16:42.627Z,3.40
2019-03-26T09:20:10.429Z,2.50
2019-03-26T09:35:25.682Z,3.90
2019-03-26T09:52:44.090Z,3.00
2019-03-26T09:56:08.898Z,3.00
2019-03-26T09:59:04.775Z,2.80
2019-03-26T10:01:39.138Z,3.13
2019-03-26T10:04:24.520Z,2.97
2019-03-26T10:06:54.433Z,2.70
2019-03-26T10:09:33.250Z,2.47
2019-03-26T10:12:15.130Z,2.60
2019-03-26T10:14:59.878Z,3.33
2019-03-26T10:17:47.118Z,2.90
2019-03-26T10:20:17.102Z,2.53
2019-03-26T10:22:46.962Z,3.33
2019-03-26T10:25:27.655Z,2.70
2019-03-26T10:31:15.317Z,2.47
2019-03-26T10:48:04.649Z,3.07
2019-03-26T10:58:11.381Z,3.57
2019-03-26T11:01:04.025Z,2.70
2019-03-26T11:06:41.676Z,3.07
2019-03-26T11:09:27.975Z,3.00
2019-03-26T11:12:22.920Z,2.70
2019-03-26T11:15:01.516Z,2.33
2019-03-26T11:18:07.332Z,2.87
2019-03-26T11:21:03.166Z,3.00
2019-03-26T11:27:26.224Z,2.60
2019-03-26T11:33:53.021Z,2.30
2019-03-26T11:36:27.409Z,2.70
2019-03-26T11:38:59.988Z,3.37
2019-03-26T11:45:13.907Z,2.00
2019-03-26T11:50:56.513Z,2.17
2019-03-26T12:11:55.412Z,1.77
2019-03-26T12:14:29.668Z,2.20
2019-03-26T12:20:37.651Z,2.23
2019-03-26T12:26:23.542Z,1.83
2019-03-26T12:35:47.257Z,2.73
2019-03-26T12:58:10.117Z,2.47
2019-03-26T13:13:01.340Z,2.70
2019-03-26T13:32:04.064Z,2.30
2019-03-26T13:37:04.419Z,2.50
2019-03-26T13:44:48.440Z,2.33
2019-03-26T13:47:29.678Z,2.60
2019-03-26T13:50:38.716Z,2.30
2019-03-26T14:02:03.175Z,2.27
2019-03-26T14:04:37.326Z,2.63
2019-03-26T14:07:08.675Z,2.30
2019-03-26T14:19:23.857Z,2.03
2019-03-26T14:22:01.066Z,3.50
2019-03-26T14:34:51.884Z,2.00
2019-03-26T14:37:30.970Z,3.17
2019-03-26T14:46:55.906Z,2.17
2019-03-26T14:49:46.932Z,1.87
2019-03-26T14:52:28.080Z,1.90
2019-03-26T14:55:04.992Z,2.20
2019-03-26T14:57:39.406Z,2.13
2019-03-26T15:00:15.193Z,2.13
2019-03-26T15:02:56.304Z,2.70
2019-03-26T15:05:26.184Z,2.10
2019-03-26T15:07:56.138Z,2.30
2019-03-26T15:10:26.008Z,2.00
2019-03-26T15:13:02.863Z,1.80
2019-03-26T15:15:38.564Z,1.77
2019-03-26T15:18:14.587Z,1.83
2019-03-26T15:20:44.678Z,1.90
2019-03-26T15:23:28.318Z,1.63
2019-03-26T15:26:05.193Z,2.23
2019-03-26T15:28:36.092Z,1.90
2019-03-26T15:31:32.505Z,2.07
2019-03-26T15:34:13.667Z,2.47
2019-03-26T15:36:52.864Z,2.13
2019-03-26T15:39:22.996Z,2.50
2019-03-26T15:41:53.315Z,2.33
2019-03-26T15:44:28.085Z,2.40
2019-03-26T15:47:07.870Z,2.47
2019-03-26T15:49:40.131Z,2.50
2019-03-26T15:52:13.963Z,2.80
2019-03-26T15:54:45.684Z,2.60
2019-03-26T16:04:04.584Z,2.70
2019-03-26T16:30:17.586Z,3.43
2019-03-26T16:33:26.791Z,3.53
2019-03-26T16:57:52.750Z,4.77
2019-03-26T17:00:33.991Z,4.97
2019-03-26T17:03:08.756Z,5.37
2019-03-26T17:08:46.087Z,4.90
2019-03-26T17:12:27.080Z,5.37
2019-03-26T17:14:39.508Z,6.03
2019-03-26T17:17:25.341Z,5.77
2019-03-26T17:20:15.448Z,5.03
2019-03-26T17:22:50.374Z,5.70
2019-03-26T17:28:14.890Z,5.93
2019-03-26T17:30:48.191Z,6.27
2019-03-26T17:36:23.794Z,6.37
2019-03-26T17:39:08.414Z,6.67
2019-03-26T17:41:40.805Z,6.07
2019-03-26T17:44:14.585Z,6.57
2019-03-26T17:46:52.407Z,6.17
2019-03-26T17:49:27.624Z,6.23
2019-03-26T17:52:12.142Z,3.17
2019-03-26T17:54:54.281Z,3.20
2019-03-26T18:00:48.707Z,2.70
2019-03-26T18:03:35.810Z,3.57
2019-03-26T18:06:26.554Z,3.37
2019-03-26T18:08:59.164Z,4.10
2019-03-26T18:11:54.452Z,5.43
2019-03-26T18:14:50.860Z,4.20
2019-03-26T18:27:43.457Z,5.63
2019-03-26T18:34:20.416Z,5.70
2019-03-26T18:58:39.123Z,3.73
2019-03-26T19:01:30.083Z,4.13
2019-03-26T19:06:40.542Z,3.40
2019-03-26T19:09:20.670Z,3.20
2019-03-26T19:12:13.712Z,4.03
2019-03-26T19:14:55.355Z,3.10
2019-03-26T19:17:38.719Z,3.10
2019-03-26T19:20:20.075Z,2.77
2019-03-26T19:29:01.445Z,3.83
2019-03-26T20:02:10.706Z,4.23
2019-03-26T20:04:48.547Z,4.27
2019-03-26T20:07:22.132Z,5.20
2019-03-26T20:09:57.331Z,5.53
2019-03-26T20:12:34.668Z,5.23
2019-03-26T20:15:10.474Z,5.60
2019-03-26T20:17:42.178Z,5.10
2019-03-26T20:20:17.881Z,6.40
2019-03-26T20:54:08.134Z,4.60
2019-03-26T21:02:27.101Z,6.37
2019-03-26T21:05:16.453Z,5.20
2019-03-26T21:11:12.572Z,5.30
2019-03-26T21:17:10.846Z,6.07
2019-03-26T21:23:09.334Z,5.63
2019-03-26T21:29:03.052Z,4.90
2019-03-26T21:38:03.294Z,5.47
2019-03-26T22:02:43.905Z,5.80
2019-03-26T22:27:12.820Z,4.77
2019-03-26T22:30:21.468Z,5.30
2019-03-26T22:32:48.721Z,5.47
2019-03-26T22:38:37.116Z,5.20
2019-03-26T22:41:33.991Z,6.13
2019-03-26T22:44:46.128Z,5.00
2019-03-26T22:47:08.733Z,5.83
2019-03-26T22:50:01.826Z,5.70
2019-03-26T22:52:40.312Z,5.47
2019-03-26T22:55:44.041Z,5.40
2019-03-26T23:04:03.558Z,5.50
2019-03-26T23:06:51.474Z,5.20
2019-03-26T23:12:50.923Z,5.50
2019-03-26T23:19:07.936Z,6.47
2019-03-26T23:21:50.526Z,5.50
2019-03-26T23:24:31.990Z,6.80
2019-03-26T23:27:24.859Z,5.00
2019-03-26T23:30:08.185Z,6.07
2019-03-26T23:33:20.705Z,5.97
2019-03-26T23:36:05.400Z,6.00
2019-03-26T23:39:24.859Z,6.83
2019-03-26T23:42:06.165Z,6.43
2019-03-26T23:48:05.274Z,7.70
2019-03-26T23:50:43.493Z,6.80
2019-03-26T23:56:41.903Z,7.00
2019-03-26T23:59:37.266Z,7.37
